Andocutin, Mexico

4:18 AM CDT on April 23, 2018 (GMT -0500)
Gen Francisco J Mujica International | | Change Station

Elev 6033 ft 19.85 °N, 101.03 °W | Updated 38 minutes ago

Mostly Cloudy
Mostly Cloudy
66 °F
Feels Like 66 °F
N
10
Wind Variable Wind from South

Today
High -- | Low -- °F
--% Chance of Precip.
Yesterday
High -- | Low -- °F
Precip. -- in
Pressure 29.64 in
Visibility 6.0 miles
Clouds Scattered Clouds 9000 ft
Mostly Cloudy 25000 ft
Dew Point 54 °F
Humidity 64%
Rainfall 0.00 in
Snow Depth Not available.
7:19 AM 8:04 PM
First Quarter, 55% visible
METAR MMMM 230840Z 18009KT 6SM SCT090 BKN250 19/12 A3020 RMK SLP036 52001 963 8/078 LTGIC S
Pressure 29.64 in
Visibility 6.0 miles
Clouds Scattered Clouds 9000 ft
Mostly Cloudy 25000 ft
Dew Point 54 °F
Humidity 64%
Rainfall 0.00 in
Snow Depth Not available.
7:19 AM 8:04 PM
First Quarter, 55% visible
METAR MMMM 230840Z 18009KT 6SM SCT090 BKN250 19/12 A3020 RMK SLP036 52001 963 8/078 LTGIC S

Get Severe Weather Alerts

Thanks for signing up!

Be on the lookout for a verification email in your inbox.

You'll start receiving the daily forecast at 6 AM.

×

10-Day Weather Forecast

No radar image for this location.
×

Almanac

Astronomy

Apr. 23, 2018 Rise Set
Actual Time
Civil Twilight
Nautical Twilight
Astronomical Twilight
Moon
Length of Visible Light
Length of Day
Tomorrow will be .
, % of the Moon is Illuminated

Today's Extremes

Country Highs Country Lows

Community

WunderPhotos

Category 6

Welcome to Category 6. This is the collective home for Weather Underground's featured writeups by Dr. Jeff Masters (right), Bob Henson (left), Chris Burt, and other regular contributors.

Nearby

Air Quality

  Air Quality AQ Index Pollutant
Not available.

Snow Depth

Station Depth Elevation

Earthquake Activity

City Distance Mag. Time & Date
Minimum magnitude displayed is 2.5.

Coastal Water Temperatures

Place Temperature

Stations

Nearby Weather Stations

Station Location Temp. Windchill Dew Point Humidity Wind Precip. Elev Updated Type